Time;durP1;ratioP1;P1;durP2;ratioP2;P2;SDS_P1;SDS_P2;PMS_P1;PMS_P2;Temp;Humidity;BMP_temperature;BMP_pressure;BME280_temperature;BME280_humidity;BME280_pressure;Samples;Min_cycle;Max_cycle;Signal;HPM_P1;HPM_P2
2022/03/09 00:00:14;;;;;;;;;;;;;;;;;;2114748;28;19948;-83
2022/03/09 00:01:15;;;;;;;;;;;;;;;;;;2106324;28;20015;-83
2022/03/09 00:02:15;;;;;;;;;;;;;;;;;;2106379;28;19944;-83
2022/03/09 00:03:15;;;;;;;;;;;;;;;;;;2106388;28;19980;-83
2022/03/09 00:04:16;;;;;;;;;;;;;;;;;;2106880;28;19912;-83
2022/03/09 00:05:16;;;;;;;;;;;;;;;;;;2106381;28;20272;-83
2022/03/09 00:06:16;;;;;;;;;;;;;;;;;;2106416;28;20017;-83
2022/03/09 00:07:17;;;;;;;;;;;;;;;;;;2106490;28;20387;-83
2022/03/09 00:08:17;;;;;;;;;;;;;;;;;;2123137;27;20015;-83
2022/03/09 00:09:17;;;;;;;;;;;;;;;;;;2114794;28;20287;-83
2022/03/09 00:10:17;;;;;;;;;;;;;;;;;;2106527;28;20244;-83
2022/03/09 00:11:18;;;;;;;;;;;;;;;;;;2106881;28;19981;-83
2022/03/09 00:12:19;;;;;;;;;;;;;;;;;;2106223;28;20419;-83
2022/03/09 00:13:19;;;;;;;;;;;;;;;;;;2106445;28;19977;-83
2022/03/09 00:14:19;;;;;;;;;;;;;;;;;;2106173;28;19923;-83
2022/03/09 00:15:20;;;;;;;;;;;;;;;;;;2106280;28;19963;-83
2022/03/09 00:16:20;;;;;;;;;;;;;;;;;;2106309;28;19923;-83
2022/03/09 00:17:20;;;;;;;;;;;;;;;;;;2106168;28;19912;-83
2022/03/09 00:18:21;;;;;;;;;;;;;;;;;;2106340;28;19912;-84
2022/03/09 00:19:21;;;;;;;;;;;;;;;;;;2106305;28;20314;-83
2022/03/09 00:20:21;;;;;;;;;;;;;;;;;;2106274;28;19923;-83
2022/03/09 00:21:22;;;;;;;;;;;;;;;;;;2097774;28;19916;-83
2022/03/09 00:22:22;;;;;;;;;;;;;;;;;;2106249;28;19920;-83
2022/03/09 00:23:22;;;;;;;;;;;;;;;;;;2106726;28;19994;-84
2022/03/09 00:24:22;;;;;;;;;;;;;;;;;;2106712;28;19912;-83
2022/03/09 00:25:23;;;;;;;;;;;;;;;;;;2106086;28;19989;-83
2022/03/09 00:26:25;;;;;;;;;;;;;;;;;;2106312;28;19912;-83
2022/03/09 00:27:29;;;;;;;;;;;;;;;;;;2106883;28;19912;-83
2022/03/09 00:28:35;;;;;;;;;;;;;;;;;;2106721;28;19912;-83
2022/03/09 00:29:35;;;;;;;;;;;;;;;;;;2107379;28;19991;-83
2022/03/09 00:30:38;;;;;;;;;;;;;;;;;;2106915;28;19920;-83
2022/03/09 00:31:38;;;;;;;;;;;;;;;;;;2107000;28;19912;-83
2022/03/09 00:32:39;;;;;;;;;;;;;;;;;;2106762;28;19919;-83
2022/03/09 00:33:39;;;;;;;;;;;;;;;;;;2106651;28;19912;-83
2022/03/09 00:34:40;;;;;;;;;;;;;;;;;;2106717;28;19999;-83
2022/03/09 00:35:42;;;;;;;;;;;;;;;;;;2106064;28;20399;-83
2022/03/09 00:36:42;;;;;;;;;;;;;;;;;;2106186;28;19920;-83
2022/03/09 00:37:43;;;;;;;;;;;;;;;;;;2114697;28;20415;-83
2022/03/09 00:38:43;;;;;;;;;;;;;;;;;;2114640;28;19939;-83
2022/03/09 00:39:43;;;;;;;;;;;;;;;;;;2106678;28;19912;-83
2022/03/09 00:40:47;;;;;;;;;;;;;;;;;;2114525;28;19912;-83
2022/03/09 00:41:48;;;;;;;;;;;;;;;;;;2114205;28;19924;-84
2022/03/09 00:42:48;;;;;;;;;;;;;;;;;;2106666;28;19912;-83
2022/03/09 00:43:48;;;;;;;;;;;;;;;;;;2106836;28;19919;-83
2022/03/09 00:44:48;;;;;;;;;;;;;;;;;;2106644;28;19928;-83
2022/03/09 00:45:49;;;;;;;;;;;;;;;;;;2106575;28;19951;-83
2022/03/09 00:46:50;;;;;;;;;;;;;;;;;;2106824;28;20020;-84
2022/03/09 00:47:50;;;;;;;;;;;;;;;;;;2106609;28;19993;-83
2022/03/09 00:48:50;;;;;;;;;;;;;;;;;;2106535;28;20356;-83
2022/03/09 00:49:51;;;;;;;;;;;;;;;;;;2105983;28;19959;-83
2022/03/09 00:50:51;;;;;;;;;;;;;;;;;;2106192;28;20441;-83
2022/03/09 00:51:51;;;;;;;;;;;;;;;;;;2106505;28;19912;-83
2022/03/09 00:52:51;;;;;;;;;;;;;;;;;;2114595;28;20273;-83
2022/03/09 00:53:52;;;;;;;;;;;;;;;;;;2114629;28;19958;-83
2022/03/09 00:54:52;;;;;;;;;;;;;;;;;;2106571;28;19977;-82
2022/03/09 00:55:52;;;;;;;;;;;;;;;;;;2105896;28;19974;-83
2022/03/09 00:56:53;;;;;;;;;;;;;;;;;;2106146;28;19912;-82
2022/03/09 00:57:53;;;;;;;;;;;;;;;;;;2105885;28;19920;-83
2022/03/09 00:58:53;;;;;;;;;;;;;;;;;;2106197;28;19916;-82
2022/03/09 00:59:54;;;;;;;;;;;;;;;;;;2106653;28;19943;-83
2022/03/09 01:00:55;;;;;;;;;;;;;;;;;;2105934;28;19942;-84
2022/03/09 01:01:55;;;;;;;;;;;;;;;;;;2105288;28;19951;-83
2022/03/09 01:02:55;;;;;;;;;;;;;;;;;;2106031;28;19947;-83
2022/03/09 01:03:56;;;;;;;;;;;;;;;;;;2106184;28;20403;-83
2022/03/09 01:04:56;;;;;;;;;;;;;;;;;;2106558;28;20358;-83
2022/03/09 01:06:01;;;;;;;;;;;;;;;;;;2106428;28;20032;-83
2022/03/09 01:07:03;;;;;;;;;;;;;;;;;;2110025;28;19912;-83
2022/03/09 01:08:03;;;;;;;;;;;;;;;;;;2118357;28;19911;-82
2022/03/09 01:09:03;;;;;;;;;;;;;;;;;;2120839;28;19959;-82
2022/03/09 01:10:04;;;;;;;;;;;;;;;;;;2114098;28;19950;-81
2022/03/09 01:11:04;;;;;;;;;;;;;;;;;;2113517;28;19950;-82
2022/03/09 01:12:05;;;;;;;;;;;;;;;;;;2113954;28;19949;-83
2022/03/09 01:13:05;;;;;;;;;;;;;;;;;;2113650;28;19945;-83
2022/03/09 01:14:05;;;;;;;;;;;;;;;;;;2110097;28;19973;-83
2022/03/09 01:15:06;;;;;;;;;;;;;;;;;;2109564;28;20343;-83
2022/03/09 01:16:10;;;;;;;;;;;;;;;;;;2108271;28;20324;-83
2022/03/09 01:17:10;;;;;;;;;;;;;;;;;;2107013;28;19977;-82
2022/03/09 01:18:10;;;;;;;;;;;;;;;;;;2107000;28;20379;-81
2022/03/09 01:19:11;;;;;;;;;;;;;;;;;;2106851;28;19915;-83
2022/03/09 01:20:13;;;;;;;;;;;;;;;;;;2106820;28;19922;-82
2022/03/09 01:21:14;;;;;;;;;;;;;;;;;;2106804;28;19912;-83
2022/03/09 01:22:14;;;;;;;;;;;;;;;;;;2106771;28;20419;-83
2022/03/09 01:23:14;;;;;;;;;;;;;;;;;;2106136;28;19912;-83
2022/03/09 01:24:15;;;;;;;;;;;;;;;;;;2106239;28;19916;-83
2022/03/09 01:25:15;;;;;;;;;;;;;;;;;;2106794;28;19952;-82
2022/03/09 01:26:15;;;;;;;;;;;;;;;;;;2106716;28;19912;-83
2022/03/09 01:27:16;;;;;;;;;;;;;;;;;;2106731;28;19912;-82
2022/03/09 01:28:16;;;;;;;;;;;;;;;;;;2106707;28;20287;-83
2022/03/09 01:29:16;;;;;;;;;;;;;;;;;;2106663;28;19919;-83
2022/03/09 01:30:16;;;;;;;;;;;;;;;;;;2106782;28;19912;-83
2022/03/09 01:31:19;;;;;;;;;;;;;;;;;;2106695;28;20404;-82
2022/03/09 01:32:21;;;;;;;;;;;;;;;;;;2114771;28;19911;-83
2022/03/09 01:33:22;;;;;;;;;;;;;;;;;;2114411;28;20480;-82
2022/03/09 01:34:22;;;;;;;;;;;;;;;;;;2106722;28;19966;-83
2022/03/09 01:35:22;;;;;;;;;;;;;;;;;;2106574;28;19988;-82
2022/03/09 01:36:22;;;;;;;;;;;;;;;;;;2106605;28;20392;-83
2022/03/09 01:37:26;;;;;;;;;;;;;;;;;;2106562;28;19919;-82
2022/03/09 01:38:26;;;;;;;;;;;;;;;;;;2106644;28;19920;-82
2022/03/09 01:39:26;;;;;;;;;;;;;;;;;;2106622;28;19995;-82
2022/03/09 01:40:27;;;;;;;;;;;;;;;;;;2106572;28;20498;-82
2022/03/09 01:41:27;;;;;;;;;;;;;;;;;;2114327;28;19916;-83
2022/03/09 01:42:36;;;;;;;;;;;;;;;;;;2114718;28;19984;-83
2022/03/09 01:43:37;;;;;;;;;;;;;;;;;;2108952;28;19912;-82
2022/03/09 01:44:37;;;;;;;;;;;;;;;;;;2106506;28;19912;-82
2022/03/09 01:45:38;;;;;;;;;;;;;;;;;;2106479;28;19912;-82
2022/03/09 01:46:41;;;;;;;;;;;;;;;;;;2106249;28;19912;-82
2022/03/09 01:47:41;;;;;;;;;;;;;;;;;;2106049;28;20401;-83
2022/03/09 01:48:44;;;;;;;;;;;;;;;;;;2106643;28;19912;-83
2022/03/09 01:49:44;;;;;;;;;;;;;;;;;;2106684;28;19912;-82
2022/03/09 01:50:45;;;;;;;;;;;;;;;;;;2106530;28;19912;-82
2022/03/09 01:51:47;;;;;;;;;;;;;;;;;;2114544;28;20287;-82
2022/03/09 01:52:48;;;;;;;;;;;;;;;;;;2105906;28;19947;-83
2022/03/09 01:53:48;;;;;;;;;;;;;;;;;;2106029;28;20284;-82
2022/03/09 01:54:50;;;;;;;;;;;;;;;;;;2106542;28;19922;-82
2022/03/09 01:55:50;;;;;;;;;;;;;;;;;;2114326;28;20132;-82
2022/03/09 01:56:51;;;;;;;;;;;;;;;;;;2114387;28;19924;-83
2022/03/09 01:57:51;;;;;;;;;;;;;;;;;;2106523;28;20360;-82
2022/03/09 01:58:51;;;;;;;;;;;;;;;;;;2106298;28;19912;-82
2022/03/09 01:59:52;;;;;;;;;;;;;;;;;;2106477;28;20284;-83
2022/03/09 02:00:52;;;;;;;;;;;;;;;;;;2106009;28;19912;-83
2022/03/09 02:01:52;;;;;;;;;;;;;;;;;;2105921;28;19916;-82
2022/03/09 02:02:53;;;;;;;;;;;;;;;;;;2106164;28;20399;-83
2022/03/09 02:03:56;;;;;;;;;;;;;;;;;;2105948;28;19913;-83
2022/03/09 02:04:57;;;;;;;;;;;;;;;;;;2106146;28;19916;-83
2022/03/09 02:06:00;;;;;;;;;;;;;;;;;;2106450;28;19955;-82
2022/03/09 02:07:00;;;;;;;;;;;;;;;;;;2106375;28;19927;-83
2022/03/09 02:10:39;;;;;;;;;;;;;;;;;;2106465;28;20330;-83
2022/03/09 02:11:39;;;;;;;;;;;;;;;;;;2106421;28;19919;-84
2022/03/09 02:12:39;;;;;;;;;;;;;;;;;;2106696;28;19916;-83
2022/03/09 02:13:40;;;;;;;;;;;;;;;;;;2107829;28;19916;-83
2022/03/09 02:14:47;;;;;;;;;;;;;;;;;;2116055;28;19995;-83
2022/03/09 02:15:47;;;;;;;;;;;;;;;;;;2115145;28;19912;-83
2022/03/09 02:16:50;;;;;;;;;;;;;;;;;;2108001;28;19969;-81
2022/03/09 02:17:51;;;;;;;;;;;;;;;;;;2107529;28;19920;-82
2022/03/09 02:18:51;;;;;;;;;;;;;;;;;;2107602;28;20368;-84
2022/03/09 02:19:51;;;;;;;;;;;;;;;;;;2107336;28;19923;-83
2022/03/09 02:20:53;;;;;;;;;;;;;;;;;;2107249;28;19944;-83
2022/03/09 02:21:56;;;;;;;;;;;;;;;;;;2099003;28;19916;-82
2022/03/09 02:22:58;;;;;;;;;;;;;;;;;;2107624;28;19919;-82
2022/03/09 02:23:58;;;;;;;;;;;;;;;;;;2107399;28;19912;-82
2022/03/09 02:25:00;;;;;;;;;;;;;;;;;;2099033;28;20376;-83
2022/03/09 02:26:02;;;;;;;;;;;;;;;;;;2107265;28;20333;-83
2022/03/09 02:27:03;;;;;;;;;;;;;;;;;;2107727;28;19912;-83
2022/03/09 02:28:03;;;;;;;;;;;;;;;;;;2115736;28;19912;-83
2022/03/09 02:29:03;;;;;;;;;;;;;;;;;;2115703;28;19911;-83
2022/03/09 02:30:04;;;;;;;;;;;;;;;;;;2098864;28;20347;-83
2022/03/09 02:31:05;;;;;;;;;;;;;;;;;;2107113;28;20010;-82
2022/03/09 02:32:06;;;;;;;;;;;;;;;;;;2115694;28;19920;-82
2022/03/09 02:33:06;;;;;;;;;;;;;;;;;;2115592;28;19922;-84
2022/03/09 02:34:06;;;;;;;;;;;;;;;;;;2107137;28;19998;-84
2022/03/09 02:35:08;;;;;;;;;;;;;;;;;;2107404;28;19923;-84
2022/03/09 02:36:08;;;;;;;;;;;;;;;;;;2107029;28;20284;-83
2022/03/09 02:37:08;;;;;;;;;;;;;;;;;;2107380;28;20002;-83
2022/03/09 02:38:09;;;;;;;;;;;;;;;;;;2107598;28;20024;-84
2022/03/09 02:39:09;;;;;;;;;;;;;;;;;;2107053;28;19912;-83
2022/03/09 02:40:11;;;;;;;;;;;;;;;;;;2107138;28;20393;-83
2022/03/09 02:41:11;;;;;;;;;;;;;;;;;;2107462;28;19923;-83
2022/03/09 02:42:12;;;;;;;;;;;;;;;;;;2115447;28;20423;-82
2022/03/09 02:43:14;;;;;;;;;;;;;;;;;;2115589;28;19912;-83
2022/03/09 02:44:17;;;;;;;;;;;;;;;;;;2106974;28;19963;-83
2022/03/09 02:45:18;;;;;;;;;;;;;;;;;;2107175;28;19912;-83
2022/03/09 02:46:20;;;;;;;;;;;;;;;;;;2107649;28;19947;-83
2022/03/09 02:47:20;;;;;;;;;;;;;;;;;;2107036;28;19962;-83
2022/03/09 02:48:23;;;;;;;;;;;;;;;;;;2106968;28;20390;-82
2022/03/09 02:49:24;;;;;;;;;;;;;;;;;;2107292;28;19920;-83
2022/03/09 02:50:24;;;;;;;;;;;;;;;;;;2115491;28;19912;-83
2022/03/09 02:51:27;;;;;;;;;;;;;;;;;;2107539;28;19912;-83
2022/03/09 02:52:27;;;;;;;;;;;;;;;;;;2107815;28;19923;-83
2022/03/09 02:53:30;;;;;;;;;;;;;;;;;;2107415;28;19966;-83
2022/03/09 02:54:32;;;;;;;;;;;;;;;;;;2107509;28;19912;-83
2022/03/09 02:55:33;;;;;;;;;;;;;;;;;;2107456;28;19941;-84
2022/03/09 02:56:38;;;;;;;;;;;;;;;;;;2107590;28;19916;-83
2022/03/09 02:57:39;;;;;;;;;;;;;;;;;;2107663;28;19951;-83
2022/03/09 02:58:41;;;;;;;;;;;;;;;;;;2106928;28;20361;-84
2022/03/09 02:59:42;;;;;;;;;;;;;;;;;;2106992;28;19912;-83
2022/03/09 03:00:42;;;;;;;;;;;;;;;;;;2107033;28;19955;-83
2022/03/09 03:01:42;;;;;;;;;;;;;;;;;;2123590;27;20322;-83
2022/03/09 03:02:45;;;;;;;;;;;;;;;;;;2123962;27;19968;-82
2022/03/09 03:03:46;;;;;;;;;;;;;;;;;;2115299;28;20399;-82
2022/03/09 03:04:48;;;;;;;;;;;;;;;;;;2106998;28;19919;-83
2022/03/09 03:05:51;;;;;;;;;;;;;;;;;;2106870;28;19919;-83
2022/03/09 03:06:51;;;;;;;;;;;;;;;;;;2115533;28;20260;-82
2022/03/09 03:07:53;;;;;;;;;;;;;;;;;;2115218;28;19923;-83
2022/03/09 03:08:54;;;;;;;;;;;;;;;;;;2098664;28;19912;-83
2022/03/09 03:09:54;;;;;;;;;;;;;;;;;;2106836;28;19923;-83
2022/03/09 03:10:57;;;;;;;;;;;;;;;;;;2115222;28;20269;-83
2022/03/09 03:11:57;;;;;;;;;;;;;;;;;;2108786;28;20269;-83
2022/03/09 03:12:58;;;;;;;;;;;;;;;;;;2107390;28;19916;-83
2022/03/09 03:13:58;;;;;;;;;;;;;;;;;;2107449;28;19923;-83
2022/03/09 03:14:58;;;;;;;;;;;;;;;;;;2107382;28;19951;-83
2022/03/09 03:15:58;;;;;;;;;;;;;;;;;;2107310;28;20387;-83
2022/03/09 03:16:59;;;;;;;;;;;;;;;;;;2107372;28;20453;-83
2022/03/09 03:18:01;;;;;;;;;;;;;;;;;;2107341;28;20007;-83
2022/03/09 03:19:01;;;;;;;;;;;;;;;;;;2115130;28;19942;-83
2022/03/09 03:20:02;;;;;;;;;;;;;;;;;;2115186;28;19962;-82
2022/03/09 03:21:02;;;;;;;;;;;;;;;;;;2107311;28;19931;-82
2022/03/09 03:22:03;;;;;;;;;;;;;;;;;;2107132;28;20072;-83
2022/03/09 03:23:03;;;;;;;;;;;;;;;;;;2106747;28;19912;-83
2022/03/09 03:24:04;;;;;;;;;;;;;;;;;;2106657;28;19912;-83
2022/03/09 03:25:04;;;;;;;;;;;;;;;;;;2106061;28;20529;-83
2022/03/09 03:26:05;;;;;;;;;;;;;;;;;;2107140;28;19977;-82
2022/03/09 03:27:05;;;;;;;;;;;;;;;;;;2115271;28;19944;-83
2022/03/09 03:28:05;;;;;;;;;;;;;;;;;;2115123;28;19919;-82
2022/03/09 03:29:13;;;;;;;;;;;;;;;;;;2107204;28;19916;-83
2022/03/09 03:30:16;;;;;;;;;;;;;;;;;;2115239;28;19922;-83
2022/03/09 03:31:19;;;;;;;;;;;;;;;;;;2115113;28;19912;-83
2022/03/09 03:32:19;;;;;;;;;;;;;;;;;;2106572;28;19916;-83
2022/03/09 03:33:20;;;;;;;;;;;;;;;;;;2106686;28;20372;-83
2022/03/09 03:34:20;;;;;;;;;;;;;;;;;;2106694;28;19926;-83
2022/03/09 03:35:20;;;;;;;;;;;;;;;;;;2115013;28;20017;-83
2022/03/09 03:36:21;;;;;;;;;;;;;;;;;;2115159;28;19928;-83
2022/03/09 03:37:21;;;;;;;;;;;;;;;;;;2107147;28;20019;-83
2022/03/09 03:38:24;;;;;;;;;;;;;;;;;;2115015;28;19911;-82
2022/03/09 03:39:24;;;;;;;;;;;;;;;;;;2114722;28;19942;-83
2022/03/09 03:40:25;;;;;;;;;;;;;;;;;;2114934;28;20478;-82
2022/03/09 03:41:27;;;;;;;;;;;;;;;;;;2114863;28;19923;-82
2022/03/09 03:42:28;;;;;;;;;;;;;;;;;;2106833;28;20349;-83
2022/03/09 03:43:31;;;;;;;;;;;;;;;;;;2107003;28;19913;-83
2022/03/09 03:44:31;;;;;;;;;;;;;;;;;;2115302;28;19976;-81
2022/03/09 03:45:31;;;;;;;;;;;;;;;;;;2114996;28;20001;-81
2022/03/09 03:46:32;;;;;;;;;;;;;;;;;;2107181;28;19912;-82
2022/03/09 03:47:33;;;;;;;;;;;;;;;;;;2106987;28;19922;-82
2022/03/09 03:48:33;;;;;;;;;;;;;;;;;;2107048;28;19919;-83
2022/03/09 03:49:33;;;;;;;;;;;;;;;;;;2106489;28;19967;-83
2022/03/09 03:50:34;;;;;;;;;;;;;;;;;;2106551;28;19977;-82
2022/03/09 03:51:34;;;;;;;;;;;;;;;;;;2106411;28;20400;-82
2022/03/09 03:52:35;;;;;;;;;;;;;;;;;;2114895;28;19912;-82
2022/03/09 03:53:35;;;;;;;;;;;;;;;;;;2098157;28;19995;-82
2022/03/09 03:54:35;;;;;;;;;;;;;;;;;;2106483;28;20331;-82
2022/03/09 03:55:36;;;;;;;;;;;;;;;;;;2114748;28;19916;-83
2022/03/09 03:56:36;;;;;;;;;;;;;;;;;;2114921;28;19912;-81
2022/03/09 03:57:39;;;;;;;;;;;;;;;;;;2106190;28;20014;-82
2022/03/09 03:58:41;;;;;;;;;;;;;;;;;;2109412;28;19916;-82
2022/03/09 03:59:44;;;;;;;;;;;;;;;;;;2106354;28;19916;-83
2022/03/09 04:00:47;;;;;;;;;;;;;;;;;;2106619;28;19920;-82
2022/03/09 04:01:50;;;;;;;;;;;;;;;;;;2106817;28;19920;-82
2022/03/09 04:02:53;;;;;;;;;;;;;;;;;;2107058;28;19916;-82
2022/03/09 04:03:53;;;;;;;;;;;;;;;;;;2107142;28;19916;-82
2022/03/09 04:04:54;;;;;;;;;;;;;;;;;;2115210;28;20391;-82
2022/03/09 04:05:54;;;;;;;;;;;;;;;;;;2114643;28;20261;-83
2022/03/09 04:06:54;;;;;;;;;;;;;;;;;;2106930;28;20288;-84
2022/03/09 04:07:55;;;;;;;;;;;;;;;;;;2106874;28;19923;-83
2022/03/09 04:08:55;;;;;;;;;;;;;;;;;;2114761;28;20451;-83
2022/03/09 04:09:56;;;;;;;;;;;;;;;;;;2114857;28;19968;-84
2022/03/09 04:10:56;;;;;;;;;;;;;;;;;;2106499;28;19937;-82
2022/03/09 04:11:56;;;;;;;;;;;;;;;;;;2106420;28;19938;-84
2022/03/09 04:13:00;;;;;;;;;;;;;;;;;;2106843;28;19912;-83
2022/03/09 04:14:00;;;;;;;;;;;;;;;;;;2114727;28;20478;-83
2022/03/09 04:15:01;;;;;;;;;;;;;;;;;;2114802;28;20011;-83
2022/03/09 04:16:04;;;;;;;;;;;;;;;;;;2106214;28;19913;-83
2022/03/09 04:17:04;;;;;;;;;;;;;;;;;;2106395;28;19912;-83
2022/03/09 04:18:04;;;;;;;;;;;;;;;;;;2106373;28;19935;-83
2022/03/09 04:19:05;;;;;;;;;;;;;;;;;;2106287;28;19916;-83
2022/03/09 04:20:05;;;;;;;;;;;;;;;;;;2106764;28;20304;-83
2022/03/09 04:21:08;;;;;;;;;;;;;;;;;;2114679;28;19915;-83
2022/03/09 04:22:10;;;;;;;;;;;;;;;;;;2114376;28;19923;-83
2022/03/09 04:23:11;;;;;;;;;;;;;;;;;;2114668;28;19930;-84
2022/03/09 04:24:13;;;;;;;;;;;;;;;;;;2114691;28;19939;-83
2022/03/09 04:25:14;;;;;;;;;;;;;;;;;;2106664;28;20020;-83
2022/03/09 04:26:14;;;;;;;;;;;;;;;;;;2106534;28;19916;-82
2022/03/09 04:27:15;;;;;;;;;;;;;;;;;;2106689;28;19912;-83
2022/03/09 04:28:17;;;;;;;;;;;;;;;;;;2114695;28;19935;-84
2022/03/09 04:29:18;;;;;;;;;;;;;;;;;;2114521;28;19922;-83
2022/03/09 04:30:25;;;;;;;;;;;;;;;;;;2106691;28;20418;-83
2022/03/09 04:31:30;;;;;;;;;;;;;;;;;;2107432;28;20014;-83
2022/03/09 04:32:43;;;;;;;;;;;;;;;;;;2106690;28;19923;-84
2022/03/09 04:33:46;;;;;;;;;;;;;;;;;;2107151;28;19916;-84
2022/03/09 04:34:46;;;;;;;;;;;;;;;;;;2106191;28;19923;-85
2022/03/09 04:35:49;;;;;;;;;;;;;;;;;;2105724;28;19923;-83
2022/03/09 04:36:53;;;;;;;;;;;;;;;;;;2106141;28;19912;-83
2022/03/09 04:37:55;;;;;;;;;;;;;;;;;;2106156;28;19912;-83
2022/03/09 04:38:58;;;;;;;;;;;;;;;;;;2114523;28;19912;-83
2022/03/09 04:40:01;;;;;;;;;;;;;;;;;;2114180;28;19912;-83
2022/03/09 04:41:01;;;;;;;;;;;;;;;;;;2105958;28;20360;-84
2022/03/09 04:42:02;;;;;;;;;;;;;;;;;;2105926;28;19917;-83
2022/03/09 04:43:08;;;;;;;;;;;;;;;;;;2106082;28;19923;-83
2022/03/09 04:44:08;;;;;;;;;;;;;;;;;;2106666;28;20003;-83
2022/03/09 04:46:38;;;;;;;;;;;;;;;;;;2106832;28;19916;-82
2022/03/09 04:47:41;;;;;;;;;;;;;;;;;;2106606;28;19915;-83
2022/03/09 04:48:49;;;;;;;;;;;;;;;;;;2114560;28;19927;-83
2022/03/09 04:49:54;;;;;;;;;;;;;;;;;;2113797;28;19957;-83
2022/03/09 04:51:04;;;;;;;;;;;;;;;;;;;;;
2022/03/09 04:52:26;;;;;;;;;;;;;;;;;;;;;
2022/03/09 04:53:44;;;;;;;;;;;;;;;;;;;;;
2022/03/09 04:54:44;;;;;;;;;;;;;;;;;;2106247;28;20254;-82
2022/03/09 04:56:05;;;;;;;;;;;;;;;;;;2106263;28;19923;-83
2022/03/09 04:57:08;;;;;;;;;;;;;;;;;;2108601;28;19916;-84
2022/03/09 04:58:32;;;;;;;;;;;;;;;;;;2117807;28;19949;-84
2022/03/09 04:59:32;;;;;;;;;;;;;;;;;;2106778;28;20277;-82
2022/03/09 05:00:35;;;;;;;;;;;;;;;;;;2112312;28;19924;-83
2022/03/09 05:01:43;;;;;;;;;;;;;;;;;;2108983;28;20385;-82
2022/03/09 05:02:48;;;;;;;;;;;;;;;;;;2107819;28;20353;-83
2022/03/09 05:03:53;;;;;;;;;;;;;;;;;;2106600;28;20007;-83
2022/03/09 05:05:01;;;;;;;;;;;;;;;;;;2106838;28;19923;-82
2022/03/09 05:06:04;;;;;;;;;;;;;;;;;;2106112;28;19953;-83
2022/03/09 05:07:07;;;;;;;;;;;;;;;;;;2106895;28;19919;-82
2022/03/09 05:08:33;;;;;;;;;;;;;;;;;;2106984;28;19928;-82
2022/03/09 05:09:33;;;;;;;;;;;;;;;;;;2107691;28;19923;-82
2022/03/09 05:10:36;;;;;;;;;;;;;;;;;;2107578;28;20283;-83
2022/03/09 05:11:37;;;;;;;;;;;;;;;;;;2108576;28;19912;-83
2022/03/09 05:12:37;;;;;;;;;;;;;;;;;;2106564;28;19977;-84
2022/03/09 05:13:43;;;;;;;;;;;;;;;;;;2106562;28;20291;-83
2022/03/09 05:16:19;;;;;;;;;;;;;;;;;;2106546;28;19919;-83
2022/03/09 05:17:20;;;;;;;;;;;;;;;;;;2106564;28;19959;-83
2022/03/09 05:18:20;;;;;;;;;;;;;;;;;;2106568;28;19916;-83
2022/03/09 05:19:20;;;;;;;;;;;;;;;;;;2106267;28;19920;-83
2022/03/09 05:20:23;;;;;;;;;;;;;;;;;;2106446;28;19948;-83
2022/03/09 05:21:33;;;;;;;;;;;;;;;;;;;;;
2022/03/09 05:22:36;;;;;;;;;;;;;;;;;;2105938;28;19977;-83
2022/03/09 05:23:46;;;;;;;;;;;;;;;;;;2106456;28;20391;-83
2022/03/09 05:24:47;;;;;;;;;;;;;;;;;;2105912;28;19951;-83
2022/03/09 05:25:47;;;;;;;;;;;;;;;;;;2105776;28;20373;-83
2022/03/09 05:26:50;;;;;;;;;;;;;;;;;;2106498;28;19912;-84
2022/03/09 05:27:55;;;;;;;;;;;;;;;;;;2106430;28;19999;-83
2022/03/09 05:28:58;;;;;;;;;;;;;;;;;;2106407;28;20375;-83
2022/03/09 05:29:59;;;;;;;;;;;;;;;;;;2106463;28;20357;-83
2022/03/09 05:31:12;;;;;;;;;;;;;;;;;;;;;
2022/03/09 05:32:17;;;;;;;;;;;;;;;;;;2106275;28;19912;-83
2022/03/09 05:33:19;;;;;;;;;;;;;;;;;;2109417;28;19951;-84
2022/03/09 05:34:22;;;;;;;;;;;;;;;;;;2106224;28;19912;-84
2022/03/09 05:35:36;;;;;;;;;;;;;;;;;;2106477;28;20031;-84
2022/03/09 05:36:37;;;;;;;;;;;;;;;;;;2105860;28;19912;-84
2022/03/09 05:37:44;;;;;;;;;;;;;;;;;;2110596;28;19922;-85
2022/03/09 05:38:59;;;;;;;;;;;;;;;;;;2115621;28;19912;-84
2022/03/09 05:39:59;;;;;;;;;;;;;;;;;;2117704;28;19912;-84
2022/03/09 05:41:04;;;;;;;;;;;;;;;;;;2114992;28;19912;-84
2022/03/09 05:42:16;;;;;;;;;;;;;;;;;;2115080;28;19916;-84
2022/03/09 05:43:25;;;;;;;;;;;;;;;;;;2113093;28;19911;-84
2022/03/09 05:44:46;;;;;;;;;;;;;;;;;;2099233;28;19912;-84
2022/03/09 05:45:47;;;;;;;;;;;;;;;;;;2106549;28;20368;-83
2022/03/09 05:46:47;;;;;;;;;;;;;;;;;;2106177;28;19923;-83
2022/03/09 05:47:48;;;;;;;;;;;;;;;;;;2106106;28;20357;-83
2022/03/09 05:49:06;;;;;;;;;;;;;;;;;;2108121;28;19912;-83
2022/03/09 05:50:09;;;;;;;;;;;;;;;;;;2107727;28;20070;-83
2022/03/09 05:51:19;;;;;;;;;;;;;;;;;;2099523;28;19928;-83
2022/03/09 05:52:19;;;;;;;;;;;;;;;;;;2110541;28;19912;-84
2022/03/09 05:53:25;;;;;;;;;;;;;;;;;;2108001;28;20468;-84
2022/03/09 05:54:35;;;;;;;;;;;;;;;;;;2110396;28;19947;-83
2022/03/09 05:55:38;;;;;;;;;;;;;;;;;;2109726;28;19948;-83
2022/03/09 05:56:38;;;;;;;;;;;;;;;;;;2107376;28;20027;-83
2022/03/09 05:57:43;;;;;;;;;;;;;;;;;;2107335;28;19916;-83
2022/03/09 05:58:46;;;;;;;;;;;;;;;;;;2115651;28;20364;-83
2022/03/09 05:59:49;;;;;;;;;;;;;;;;;;2107300;28;19912;-83
2022/03/09 06:00:49;;;;;;;;;;;;;;;;;;2107410;28;19985;-83
2022/03/09 06:01:50;;;;;;;;;;;;;;;;;;2107861;28;19947;-83
2022/03/09 06:02:53;;;;;;;;;;;;;;;;;;2114564;28;20412;-83
2022/03/09 06:04:11;;;;;;;;;;;;;;;;;;2115459;28;19912;-83
2022/03/09 06:05:14;;;;;;;;;;;;;;;;;;2107827;28;19920;-83
2022/03/09 06:06:15;;;;;;;;;;;;;;;;;;2107613;28;19995;-82
2022/03/09 06:12:50;;;;;;;;;;;;;;;;;;2048245;29;19922;-85
2022/03/09 06:15:58;;;;;;;;;;;;;;;;;;2064903;28;19914;-84
2022/03/09 06:16:58;;;;;;;;;;;;;;;;;;2057594;28;19914;-84
2022/03/09 06:17:59;;;;;;;;;;;;;;;;;;2063555;28;19913;-84
2022/03/09 06:19:06;;;;;;;;;;;;;;;;;;2081993;28;20012;-82
2022/03/09 06:20:07;;;;;;;;;;;;;;;;;;2082011;28;19945;-84
2022/03/09 06:21:07;;;;;;;;;;;;;;;;;;2107748;28;19947;-84
2022/03/09 06:22:13;;;;;;;;;;;;;;;;;;2107637;28;19915;-85
2022/03/09 06:23:13;;;;;;;;;;;;;;;;;;2107243;28;19912;-84
2022/03/09 06:24:18;;;;;;;;;;;;;;;;;;2107322;28;19981;-84
2022/03/09 06:25:18;;;;;;;;;;;;;;;;;;2107623;28;20006;-83
2022/03/09 06:26:18;;;;;;;;;;;;;;;;;;2107703;28;20264;-83
2022/03/09 06:27:19;;;;;;;;;;;;;;;;;;2107780;28;19912;-82
2022/03/09 06:28:24;;;;;;;;;;;;;;;;;;2115546;28;20356;-83
2022/03/09 06:29:24;;;;;;;;;;;;;;;;;;2114963;28;20242;-83
2022/03/09 06:30:25;;;;;;;;;;;;;;;;;;2107345;28;19923;-83
2022/03/09 06:31:25;;;;;;;;;;;;;;;;;;2107455;28;19912;-83
2022/03/09 06:32:26;;;;;;;;;;;;;;;;;;2107657;28;19919;-83
2022/03/09 06:33:26;;;;;;;;;;;;;;;;;;2115461;28;19911;-82
2022/03/09 06:34:27;;;;;;;;;;;;;;;;;;2115240;28;19911;-82
2022/03/09 06:35:27;;;;;;;;;;;;;;;;;;2106762;28;19959;-83
2022/03/09 06:36:27;;;;;;;;;;;;;;;;;;2115494;28;19911;-84
2022/03/09 06:37:28;;;;;;;;;;;;;;;;;;2107743;28;19912;-83
2022/03/09 06:38:28;;;;;;;;;;;;;;;;;;2115311;28;19955;-83
2022/03/09 06:39:28;;;;;;;;;;;;;;;;;;2115544;28;20352;-82
2022/03/09 06:40:29;;;;;;;;;;;;;;;;;;2107794;28;19912;-84
2022/03/09 06:41:29;;;;;;;;;;;;;;;;;;2107522;28;19958;-84
2022/03/09 06:42:29;;;;;;;;;;;;;;;;;;2107437;28;19916;-84
2022/03/09 06:43:30;;;;;;;;;;;;;;;;;;2107613;28;19916;-83
2022/03/09 06:44:35;;;;;;;;;;;;;;;;;;2107605;28;19912;-83
2022/03/09 06:47:06;;;;;;;;;;;;;;;;;;2097466;28;19912;-82
2022/03/09 06:48:09;;;;;;;;;;;;;;;;;;2107920;28;19923;-82
2022/03/09 06:49:12;;;;;;;;;;;;;;;;;;2107723;28;20273;-82
2022/03/09 06:50:35;;;;;;;;;;;;;;;;;;2109830;28;20047;-82
2022/03/09 06:51:46;;;;;;;;;;;;;;;;;;;;;
2022/03/09 06:53:05;;;;;;;;;;;;;;;;;;2106545;28;19916;-82
2022/03/09 06:54:08;;;;;;;;;;;;;;;;;;2106983;28;19927;-84
2022/03/09 06:55:14;;;;;;;;;;;;;;;;;;2107737;28;19926;-83
2022/03/09 06:56:24;;;;;;;;;;;;;;;;;;2116041;28;20392;-83
2022/03/09 06:57:28;;;;;;;;;;;;;;;;;;2108161;28;19912;-83
2022/03/09 06:58:33;;;;;;;;;;;;;;;;;;2107219;28;19912;-83
2022/03/09 06:59:46;;;;;;;;;;;;;;;;;;2107228;28;19912;-83
2022/03/09 07:00:57;;;;;;;;;;;;;;;;;;2100928;28;20040;-82
2022/03/09 07:02:10;;;;;;;;;;;;;;;;;;2110505;28;20010;-83
2022/03/09 07:03:11;;;;;;;;;;;;;;;;;;2113266;28;19912;-82
2022/03/09 07:04:16;;;;;;;;;;;;;;;;;;2103438;28;19916;-82
2022/03/09 07:05:22;;;;;;;;;;;;;;;;;;2106923;28;19912;-82
2022/03/09 07:06:25;;;;;;;;;;;;;;;;;;2107384;28;20065;-82
2022/03/09 07:07:26;;;;;;;;;;;;;;;;;;2106795;28;20354;-82
2022/03/09 07:08:28;;;;;;;;;;;;;;;;;;2106864;28;19944;-83
2022/03/09 07:09:29;;;;;;;;;;;;;;;;;;2106787;28;20007;-82
2022/03/09 07:10:29;;;;;;;;;;;;;;;;;;2106917;28;19923;-82
2022/03/09 07:11:29;;;;;;;;;;;;;;;;;;2107222;28;19912;-83
2022/03/09 07:12:32;;;;;;;;;;;;;;;;;;2107363;28;20387;-83
2022/03/09 07:13:32;;;;;;;;;;;;;;;;;;2107608;28;19986;-83
2022/03/09 07:14:33;;;;;;;;;;;;;;;;;;2115092;28;20310;-84
2022/03/09 07:15:33;;;;;;;;;;;;;;;;;;2115188;28;20008;-82
2022/03/09 07:16:34;;;;;;;;;;;;;;;;;;2107348;28;19979;-82
2022/03/09 07:17:37;;;;;;;;;;;;;;;;;;2107317;28;20268;-82
2022/03/09 07:18:37;;;;;;;;;;;;;;;;;;2107345;28;19912;-83
2022/03/09 07:19:40;;;;;;;;;;;;;;;;;;2107339;28;19931;-83
2022/03/09 07:20:40;;;;;;;;;;;;;;;;;;2107404;28;19913;-83